sensor_id;sensor_type;location;lat;lon;timestamp;pressure;altitude;pressure_sealevel;temperature;humidity
62524;BME280;53689;56.878;60.672;2023-06-01T00:02:25;97686.63;;;29.10;25.25
62524;BME280;53689;56.878;60.672;2023-06-01T00:04:53;97689.28;;;29.00;25.50
62524;BME280;53689;56.878;60.672;2023-06-01T00:07:20;97691.41;;;28.92;24.81
62524;BME280;53689;56.878;60.672;2023-06-01T00:09:47;97674.13;;;29.14;24.57
62524;BME280;53689;56.878;60.672;2023-06-01T00:12:16;97680.00;;;28.96;25.07
62524;BME280;53689;56.878;60.672;2023-06-01T00:14:43;97681.16;;;29.05;24.97
62524;BME280;53689;56.878;60.672;2023-06-01T00:17:11;97679.47;;;28.99;25.77
62524;BME280;53689;56.878;60.672;2023-06-01T00:19:38;97675.94;;;28.98;25.39
62524;BME280;53689;56.878;60.672;2023-06-01T00:22:05;97675.44;;;29.06;25.07
62524;BME280;53689;56.878;60.672;2023-06-01T00:24:33;97661.47;;;28.98;25.44
62524;BME280;53689;56.878;60.672;2023-06-01T00:27:00;97667.94;;;28.86;25.43
62524;BME280;53689;56.878;60.672;2023-06-01T00:29:29;97664.13;;;28.87;25.23
62524;BME280;53689;56.878;60.672;2023-06-01T00:31:56;97668.50;;;28.88;25.63
62524;BME280;53689;56.878;60.672;2023-06-01T00:34:24;97671.59;;;29.02;24.77
62524;BME280;53689;56.878;60.672;2023-06-01T00:36:52;97664.16;;;28.92;25.47
62524;BME280;53689;56.878;60.672;2023-06-01T00:39:19;97663.59;;;28.90;25.53
62524;BME280;53689;56.878;60.672;2023-06-01T00:41:46;97659.38;;;28.77;25.42
62524;BME280;53689;56.878;60.672;2023-06-01T00:44:13;97668.69;;;28.82;24.75
62524;BME280;53689;56.878;60.672;2023-06-01T00:46:42;97668.50;;;28.88;25.01
62524;BME280;53689;56.878;60.672;2023-06-01T00:49:10;97665.72;;;28.83;25.67
62524;BME280;53689;56.878;60.672;2023-06-01T00:51:37;97673.41;;;28.91;25.61
62524;BME280;53689;56.878;60.672;2023-06-01T00:54:04;97678.38;;;29.00;24.43
62524;BME280;53689;56.878;60.672;2023-06-01T00:56:32;97674.38;;;28.75;25.86
62524;BME280;53689;56.878;60.672;2023-06-01T00:58:59;97666.84;;;28.87;25.56
62524;BME280;53689;56.878;60.672;2023-06-01T01:01:26;97665.53;;;28.95;25.42
62524;BME280;53689;56.878;60.672;2023-06-01T01:03:55;97664.03;;;28.82;25.63
62524;BME280;53689;56.878;60.672;2023-06-01T01:06:25;97665.78;;;28.88;25.21
62524;BME280;53689;56.878;60.672;2023-06-01T01:08:56;97670.56;;;28.76;25.33
62524;BME280;53689;56.878;60.672;2023-06-01T01:11:29;97661.53;;;28.75;25.74
62524;BME280;53689;56.878;60.672;2023-06-01T01:13:58;97658.56;;;28.77;25.66
62524;BME280;53689;56.878;60.672;2023-06-01T01:16:27;97654.03;;;28.88;25.05
62524;BME280;53689;56.878;60.672;2023-06-01T01:18:58;97654.56;;;28.85;24.89
62524;BME280;53689;56.878;60.672;2023-06-01T01:21:30;97663.41;;;29.02;24.86
62524;BME280;53689;56.878;60.672;2023-06-01T01:24:07;97648.69;;;28.65;25.61
62524;BME280;53689;56.878;60.672;2023-06-01T01:29:31;97645.97;;;28.98;24.98
62524;BME280;53689;56.878;60.672;2023-06-01T01:31:58;97643.50;;;28.69;25.66
62524;BME280;53689;56.878;60.672;2023-06-01T01:34:27;97636.34;;;28.58;25.69
62524;BME280;53689;56.878;60.672;2023-06-01T01:36:55;97639.25;;;28.46;25.89
62524;BME280;53689;56.878;60.672;2023-06-01T01:39:22;97645.09;;;28.32;26.15
62524;BME280;53689;56.878;60.672;2023-06-01T01:41:49;97636.06;;;28.27;25.94
62524;BME280;53689;56.878;60.672;2023-06-01T01:44:17;97640.91;;;28.47;26.16
62524;BME280;53689;56.878;60.672;2023-06-01T01:46:47;97628.56;;;28.39;27.43
62524;BME280;53689;56.878;60.672;2023-06-01T01:49:20;97633.81;;;28.46;27.15
62524;BME280;53689;56.878;60.672;2023-06-01T01:51:52;97640.16;;;28.57;26.10
62524;BME280;53689;56.878;60.672;2023-06-01T01:54:21;97643.50;;;28.69;26.07
62524;BME280;53689;56.878;60.672;2023-06-01T01:56:48;97646.94;;;28.54;26.06
62524;BME280;53689;56.878;60.672;2023-06-01T01:59:16;97646.16;;;28.59;26.36
62524;BME280;53689;56.878;60.672;2023-06-01T02:01:46;97651.25;;;28.50;26.49
62524;BME280;53689;56.878;60.672;2023-06-01T02:04:14;97649.41;;;28.56;26.32
62524;BME280;53689;56.878;60.672;2023-06-01T02:06:41;97638.25;;;28.57;26.30
62524;BME280;53689;56.878;60.672;2023-06-01T02:09:09;97632.16;;;28.45;26.37
62524;BME280;53689;56.878;60.672;2023-06-01T02:11:36;97626.44;;;28.46;26.07
62524;BME280;53689;56.878;60.672;2023-06-01T02:14:04;97636.47;;;28.41;26.30
62524;BME280;53689;56.878;60.672;2023-06-01T02:16:31;97634.59;;;28.41;26.59
62524;BME280;53689;56.878;60.672;2023-06-01T02:19:00;97625.06;;;28.44;26.70
62524;BME280;53689;56.878;60.672;2023-06-01T02:21:27;97624.16;;;28.33;26.95
62524;BME280;53689;56.878;60.672;2023-06-01T02:23:59;97633.97;;;28.34;26.75
62524;BME280;53689;56.878;60.672;2023-06-01T02:26:27;97635.88;;;28.33;26.96
62524;BME280;53689;56.878;60.672;2023-06-01T02:28:54;97633.22;;;28.44;26.44
62524;BME280;53689;56.878;60.672;2023-06-01T02:31:21;97628.88;;;28.43;26.47
62524;BME280;53689;56.878;60.672;2023-06-01T02:33:49;97628.94;;;28.48;26.82
62524;BME280;53689;56.878;60.672;2023-06-01T02:36:17;97625.81;;;28.34;26.99
62524;BME280;53689;56.878;60.672;2023-06-01T02:38:44;97623.41;;;28.37;26.78
62524;BME280;53689;56.878;60.672;2023-06-01T02:41:12;97627.31;;;28.52;26.61
62524;BME280;53689;56.878;60.672;2023-06-01T02:43:39;97631.97;;;28.57;27.04
62524;BME280;53689;56.878;60.672;2023-06-01T02:46:06;97633.38;;;28.59;26.85
62524;BME280;53689;56.878;60.672;2023-06-01T02:48:38;97633.41;;;28.64;26.74
62524;BME280;53689;56.878;60.672;2023-06-01T02:51:06;97634.72;;;28.57;26.91
62524;BME280;53689;56.878;60.672;2023-06-01T02:53:35;97640.50;;;28.65;27.60
62524;BME280;53689;56.878;60.672;2023-06-01T02:56:06;97630.00;;;28.79;26.39
62524;BME280;53689;56.878;60.672;2023-06-01T02:58:49;97640.00;;;28.74;26.89
62524;BME280;53689;56.878;60.672;2023-06-01T03:01:22;97634.19;;;28.60;28.14
62524;BME280;53689;56.878;60.672;2023-06-01T03:03:49;97631.59;;;28.75;27.03
62524;BME280;53689;56.878;60.672;2023-06-01T03:06:17;97629.53;;;28.88;26.25
62524;BME280;53689;56.878;60.672;2023-06-01T03:09:04;97632.81;;;28.90;25.85
62524;BME280;53689;56.878;60.672;2023-06-01T03:12:03;97633.75;;;29.06;25.84
62524;BME280;53689;56.878;60.672;2023-06-01T03:14:32;97627.69;;;28.99;26.10
62524;BME280;53689;56.878;60.672;2023-06-01T03:17:01;97618.91;;;28.91;25.96
62524;BME280;53689;56.878;60.672;2023-06-01T03:19:28;97604.13;;;28.82;26.44
62524;BME280;53689;56.878;60.672;2023-06-01T03:21:58;97611.84;;;28.90;26.06
62524;BME280;53689;56.878;60.672;2023-06-01T03:24:28;97611.13;;;29.05;26.26
62524;BME280;53689;56.878;60.672;2023-06-01T03:27:00;97612.06;;;28.84;26.30
62524;BME280;53689;56.878;60.672;2023-06-01T03:29:30;97625.75;;;28.89;27.61
62524;BME280;53689;56.878;60.672;2023-06-01T03:31:57;97625.03;;;29.09;25.35
62524;BME280;53689;56.878;60.672;2023-06-01T03:34:25;97635.69;;;29.16;25.82
62524;BME280;53689;56.878;60.672;2023-06-01T03:36:52;97638.16;;;29.12;25.88
62524;BME280;53689;56.878;60.672;2023-06-01T03:39:19;97638.16;;;29.12;26.38
62524;BME280;53689;56.878;60.672;2023-06-01T03:41:49;97639.06;;;28.90;26.28
62524;BME280;53689;56.878;60.672;2023-06-01T03:44:16;97648.69;;;28.98;26.31
62524;BME280;53689;56.878;60.672;2023-06-01T03:46:44;97648.88;;;28.86;26.47
62524;BME280;53689;56.878;60.672;2023-06-01T03:49:12;97653.41;;;29.13;25.53
62524;BME280;53689;56.878;60.672;2023-06-01T03:51:39;97653.63;;;29.06;26.83
62524;BME280;53689;56.878;60.672;2023-06-01T03:54:07;97643.72;;;28.90;26.67
62524;BME280;53689;56.878;60.672;2023-06-01T03:56:34;97642.09;;;28.89;26.52
62524;BME280;53689;56.878;60.672;2023-06-01T03:59:03;97647.03;;;28.97;25.99
62524;BME280;53689;56.878;60.672;2023-06-01T04:01:31;97634.97;;;28.88;26.80
62524;BME280;53689;56.878;60.672;2023-06-01T04:03:58;97640.47;;;28.93;26.49
62524;BME280;53689;56.878;60.672;2023-06-01T04:06:26;97648.97;;;29.02;26.45
62524;BME280;53689;56.878;60.672;2023-06-01T04:08:53;97644.75;;;28.84;26.22
62524;BME280;53689;56.878;60.672;2023-06-01T04:11:21;97646.22;;;29.02;26.17
62524;BME280;53689;56.878;60.672;2023-06-01T04:13:49;97654.81;;;29.21;26.10
62524;BME280;53689;56.878;60.672;2023-06-01T04:16:18;97647.97;;;29.18;25.94
62524;BME280;53689;56.878;60.672;2023-06-01T04:18:45;97647.91;;;29.03;26.28
62524;BME280;53689;56.878;60.672;2023-06-01T04:21:19;97646.22;;;28.97;26.50
62524;BME280;53689;56.878;60.672;2023-06-01T04:23:47;97641.94;;;29.11;26.13
62524;BME280;53689;56.878;60.672;2023-06-01T04:26:15;97643.84;;;29.11;26.34
62524;BME280;53689;56.878;60.672;2023-06-01T04:28:42;97646.91;;;29.19;25.88
62524;BME280;53689;56.878;60.672;2023-06-01T04:31:10;97646.19;;;29.40;25.78
62524;BME280;53689;56.878;60.672;2023-06-01T04:33:39;97655.19;;;28.97;26.56
62524;BME280;53689;56.878;60.672;2023-06-01T04:36:07;97655.28;;;29.51;25.69
62524;BME280;53689;56.878;60.672;2023-06-01T04:38:35;97655.19;;;29.40;25.88
62524;BME280;53689;56.878;60.672;2023-06-01T04:41:02;97651.13;;;29.43;26.09
62524;BME280;53689;56.878;60.672;2023-06-01T04:43:30;97647.63;;;29.47;25.85
62524;BME280;53689;56.878;60.672;2023-06-01T04:45:58;97647.84;;;29.41;26.45
62524;BME280;53689;56.878;60.672;2023-06-01T04:48:25;97643.59;;;29.55;26.07
62524;BME280;53689;56.878;60.672;2023-06-01T04:50:58;97643.19;;;29.36;26.31
62524;BME280;53689;56.878;60.672;2023-06-01T04:53:26;97640.66;;;29.72;25.43
62524;BME280;53689;56.878;60.672;2023-06-01T04:55:53;97653.16;;;29.68;25.97
62524;BME280;53689;56.878;60.672;2023-06-01T04:58:21;97653.16;;;29.63;26.31
62524;BME280;53689;56.878;60.672;2023-06-01T05:00:48;97638.06;;;29.45;26.40
62524;BME280;53689;56.878;60.672;2023-06-01T05:03:15;97632.75;;;29.76;25.74
62524;BME280;53689;56.878;60.672;2023-06-01T05:05:44;97640.38;;;29.69;26.16
62524;BME280;53689;56.878;60.672;2023-06-01T05:08:12;97645.66;;;29.43;26.31
62524;BME280;53689;56.878;60.672;2023-06-01T05:10:40;97647.19;;;29.71;25.87
62524;BME280;53689;56.878;60.672;2023-06-01T05:13:07;97647.16;;;29.61;26.02
62524;BME280;53689;56.878;60.672;2023-06-01T05:15:36;97644.13;;;29.57;26.77
62524;BME280;53689;56.878;60.672;2023-06-01T05:18:03;97633.91;;;29.96;26.30
62524;BME280;53689;56.878;60.672;2023-06-01T05:20:31;97637.59;;;29.58;26.97
62524;BME280;53689;56.878;60.672;2023-06-01T05:22:59;97630.81;;;29.66;26.34
62524;BME280;53689;56.878;60.672;2023-06-01T05:25:28;97624.53;;;29.71;26.91
62524;BME280;53689;56.878;60.672;2023-06-01T05:27:55;97633.50;;;29.56;27.25
62524;BME280;53689;56.878;60.672;2023-06-01T05:30:23;97628.59;;;29.58;27.40
62524;BME280;53689;56.878;60.672;2023-06-01T05:32:51;97625.84;;;29.58;26.79
62524;BME280;53689;56.878;60.672;2023-06-01T05:35:20;97612.25;;;29.68;26.75
62524;BME280;53689;56.878;60.672;2023-06-01T05:37:49;97614.72;;;29.65;27.11
62524;BME280;53689;56.878;60.672;2023-06-01T05:40:16;97608.72;;;29.68;26.61
62524;BME280;53689;56.878;60.672;2023-06-01T05:42:45;97608.22;;;29.76;26.90
62524;BME280;53689;56.878;60.672;2023-06-01T05:45:12;97611.22;;;29.80;27.17
62524;BME280;53689;56.878;60.672;2023-06-01T05:47:41;97604.53;;;29.44;27.60
62524;BME280;53689;56.878;60.672;2023-06-01T05:50:09;97621.97;;;29.43;27.73
62524;BME280;53689;56.878;60.672;2023-06-01T05:52:37;97601.34;;;29.68;27.48
62524;BME280;53689;56.878;60.672;2023-06-01T05:55:04;97596.16;;;29.61;27.82
62524;BME280;53689;56.878;60.672;2023-06-01T05:57:32;97605.72;;;29.64;27.55
62524;BME280;53689;56.878;60.672;2023-06-01T06:00:01;97605.63;;;29.48;27.52
62524;BME280;53689;56.878;60.672;2023-06-01T06:02:28;97599.44;;;29.69;27.44
62524;BME280;53689;56.878;60.672;2023-06-01T06:04:56;97598.03;;;29.51;27.64
62524;BME280;53689;56.878;60.672;2023-06-01T06:07:23;97599.94;;;29.50;27.12
62524;BME280;53689;56.878;60.672;2023-06-01T06:09:50;97593.38;;;29.46;27.05
62524;BME280;53689;56.878;60.672;2023-06-01T06:12:17;97589.56;;;29.52;27.08
62524;BME280;53689;56.878;60.672;2023-06-01T06:14:45;97584.00;;;29.31;27.69
62524;BME280;53689;56.878;60.672;2023-06-01T06:17:13;97573.56;;;29.13;27.81
62524;BME280;53689;56.878;60.672;2023-06-01T06:19:40;97586.81;;;28.99;27.70
62524;BME280;53689;56.878;60.672;2023-06-01T06:22:08;97585.75;;;29.00;28.54
62524;BME280;53689;56.878;60.672;2023-06-01T06:24:35;97573.75;;;28.96;28.11
62524;BME280;53689;56.878;60.672;2023-06-01T06:27:02;97581.38;;;28.99;28.21
62524;BME280;53689;56.878;60.672;2023-06-01T06:29:29;97566.91;;;28.93;28.18
62524;BME280;53689;56.878;60.672;2023-06-01T06:31:57;97566.84;;;28.88;28.21
62524;BME280;53689;56.878;60.672;2023-06-01T06:34:25;97563.94;;;29.00;28.20
62524;BME280;53689;56.878;60.672;2023-06-01T06:36:53;97561.75;;;29.02;28.28
62524;BME280;53689;56.878;60.672;2023-06-01T06:39:20;97554.22;;;29.14;29.23
62524;BME280;53689;56.878;60.672;2023-06-01T06:41:47;97542.22;;;29.20;27.44
62524;BME280;53689;56.878;60.672;2023-06-01T06:44:14;97545.50;;;29.17;27.99
62524;BME280;53689;56.878;60.672;2023-06-01T06:46:41;97550.19;;;29.27;27.84
62524;BME280;53689;56.878;60.672;2023-06-01T06:49:08;97544.88;;;29.00;27.81
62524;BME280;53689;56.878;60.672;2023-06-01T06:51:38;97557.97;;;29.03;27.95
62524;BME280;53689;56.878;60.672;2023-06-01T06:54:05;97554.66;;;28.96;28.11
62524;BME280;53689;56.878;60.672;2023-06-01T06:56:32;97557.25;;;29.18;29.13
62524;BME280;53689;56.878;60.672;2023-06-01T06:59:00;97555.59;;;29.22;27.48
62524;BME280;53689;56.878;60.672;2023-06-01T07:01:34;97565.13;;;29.19;27.42
62524;BME280;53689;56.878;60.672;2023-06-01T07:04:03;97565.13;;;29.19;27.75
62524;BME280;53689;56.878;60.672;2023-06-01T07:06:31;97566.22;;;29.18;27.82
62524;BME280;53689;56.878;60.672;2023-06-01T07:08:59;97571.72;;;29.29;27.53
62524;BME280;53689;56.878;60.672;2023-06-01T07:11:27;97569.56;;;29.36;27.42
62524;BME280;53689;56.878;60.672;2023-06-01T07:13:54;97574.09;;;29.10;27.36
62524;BME280;53689;56.878;60.672;2023-06-01T07:16:21;97571.03;;;29.01;27.43
62524;BME280;53689;56.878;60.672;2023-06-01T07:18:48;97556.31;;;29.02;27.38
62524;BME280;53689;56.878;60.672;2023-06-01T07:21:15;97559.78;;;28.87;27.54
62524;BME280;53689;56.878;60.672;2023-06-01T07:23:43;97553.59;;;29.02;27.19
62524;BME280;53689;56.878;60.672;2023-06-01T07:26:12;97549.91;;;29.24;27.07
62524;BME280;53689;56.878;60.672;2023-06-01T07:28:39;97547.69;;;29.20;27.00
62524;BME280;53689;56.878;60.672;2023-06-01T07:31:07;97546.03;;;29.14;27.22
62524;BME280;53689;56.878;60.672;2023-06-01T07:33:35;97545.16;;;29.03;27.33
62524;BME280;53689;56.878;60.672;2023-06-01T07:36:02;97559.72;;;28.44;27.85
62524;BME280;53689;56.878;60.672;2023-06-01T07:38:30;97549.72;;;27.62;28.75
62524;BME280;53689;56.878;60.672;2023-06-01T07:40:57;97552.75;;;27.98;28.38
62524;BME280;53689;56.878;60.672;2023-06-01T07:43:26;97543.69;;;28.15;28.29
62524;BME280;53689;56.878;60.672;2023-06-01T07:45:53;97540.34;;;28.07;27.74
62524;BME280;53689;56.878;60.672;2023-06-01T07:48:21;97524.72;;;29.01;27.65
62524;BME280;53689;56.878;60.672;2023-06-01T07:50:48;97532.25;;;28.83;27.64
62524;BME280;53689;56.878;60.672;2023-06-01T07:53:15;97533.50;;;29.18;26.66
62524;BME280;53689;56.878;60.672;2023-06-01T07:55:43;97521.56;;;29.30;27.09
62524;BME280;53689;56.878;60.672;2023-06-01T07:58:10;97515.72;;;29.85;26.04
62524;BME280;53689;56.878;60.672;2023-06-01T08:00:38;97526.63;;;29.74;26.22
62524;BME280;53689;56.878;60.672;2023-06-01T08:03:06;97518.44;;;29.64;26.39
62524;BME280;53689;56.878;60.672;2023-06-01T08:05:34;97528.56;;;29.74;26.12
62524;BME280;53689;56.878;60.672;2023-06-01T08:08:05;97521.22;;;30.00;25.71
62524;BME280;53689;56.878;60.672;2023-06-01T08:10:32;97521.47;;;29.88;25.63
62524;BME280;53689;56.878;60.672;2023-06-01T08:12:59;97524.16;;;29.73;26.21
62524;BME280;53689;56.878;60.672;2023-06-01T08:15:26;97514.34;;;29.72;26.04
62524;BME280;53689;56.878;60.672;2023-06-01T08:17:55;97513.25;;;29.57;25.96
62524;BME280;53689;56.878;60.672;2023-06-01T08:20:23;97520.59;;;29.67;25.91
62524;BME280;53689;56.878;60.672;2023-06-01T08:22:50;97510.28;;;29.69;26.27
62524;BME280;53689;56.878;60.672;2023-06-01T08:25:17;97505.63;;;29.70;25.86
62524;BME280;53689;56.878;60.672;2023-06-01T08:27:44;97502.34;;;29.73;26.02
62524;BME280;53689;56.878;60.672;2023-06-01T08:30:12;97503.69;;;29.60;26.36
62524;BME280;53689;56.878;60.672;2023-06-01T08:32:40;97512.44;;;29.62;25.89
62524;BME280;53689;56.878;60.672;2023-06-01T08:35:09;97522.28;;;29.84;25.82
62524;BME280;53689;56.878;60.672;2023-06-01T08:37:36;97517.34;;;29.70;26.02
62524;BME280;53689;56.878;60.672;2023-06-01T08:40:03;97529.63;;;29.68;26.11
62524;BME280;53689;56.878;60.672;2023-06-01T08:42:33;97527.63;;;29.42;26.22
62524;BME280;53689;56.878;60.672;2023-06-01T08:45:03;97519.28;;;29.06;26.54
62524;BME280;53689;56.878;60.672;2023-06-01T08:47:31;97525.25;;;29.72;25.89
62524;BME280;53689;56.878;60.672;2023-06-01T08:49:59;97525.56;;;29.81;25.61
62524;BME280;53689;56.878;60.672;2023-06-01T08:52:28;97542.59;;;29.40;25.90
62524;BME280;53689;56.878;60.672;2023-06-01T08:54:56;97531.97;;;29.43;25.87
62524;BME280;53689;56.878;60.672;2023-06-01T08:57:25;97541.31;;;29.53;25.23
62524;BME280;53689;56.878;60.672;2023-06-01T08:59:52;97552.66;;;29.39;26.02
62524;BME280;53689;56.878;60.672;2023-06-01T09:02:19;97548.94;;;29.51;25.90
62524;BME280;53689;56.878;60.672;2023-06-01T09:04:46;97545.94;;;29.52;25.61
62524;BME280;53689;56.878;60.672;2023-06-01T09:07:14;97554.44;;;29.61;25.23
62524;BME280;53689;56.878;60.672;2023-06-01T09:09:43;97566.16;;;29.67;24.86
62524;BME280;53689;56.878;60.672;2023-06-01T09:12:17;97573.53;;;29.66;25.20
62524;BME280;53689;56.878;60.672;2023-06-01T09:14:44;97573.25;;;29.73;24.99
62524;BME280;53689;56.878;60.672;2023-06-01T09:17:12;97586.56;;;29.54;25.11
62524;BME280;53689;56.878;60.672;2023-06-01T09:19:43;97592.28;;;29.47;25.07
62524;BME280;53689;56.878;60.672;2023-06-01T09:22:10;97596.88;;;29.41;25.16
62524;BME280;53689;56.878;60.672;2023-06-01T09:24:38;97606.06;;;29.25;25.51
62524;BME280;53689;56.878;60.672;2023-06-01T09:27:07;97591.88;;;29.23;25.61
62524;BME280;53689;56.878;60.672;2023-06-01T09:29:35;97595.34;;;29.07;25.96
62524;BME280;53689;56.878;60.672;2023-06-01T09:32:02;97594.63;;;28.85;26.56
62524;BME280;53689;56.878;60.672;2023-06-01T09:34:29;97604.56;;;29.06;26.00
62524;BME280;53689;56.878;60.672;2023-06-01T09:36:57;97601.19;;;29.32;25.94
62524;BME280;53689;56.878;60.672;2023-06-01T09:39:32;97601.94;;;29.22;26.25
62524;BME280;53689;56.878;60.672;2023-06-01T09:42:00;97600.44;;;28.99;25.59
62524;BME280;53689;56.878;60.672;2023-06-01T09:44:30;97597.78;;;29.09;25.59
62524;BME280;53689;56.878;60.672;2023-06-01T09:46:58;97596.63;;;29.00;25.54
62524;BME280;53689;56.878;60.672;2023-06-01T09:49:26;97577.00;;;28.98;25.56
62524;BME280;53689;56.878;60.672;2023-06-01T09:52:07;97580.69;;;28.81;25.85
62524;BME280;53689;56.878;60.672;2023-06-01T09:54:36;97566.31;;;28.86;28.84
62524;BME280;53689;56.878;60.672;2023-06-01T09:57:04;97548.31;;;28.85;26.21
62524;BME280;53689;56.878;60.672;2023-06-01T09:59:40;97546.09;;;28.82;26.23
62524;BME280;53689;56.878;60.672;2023-06-01T10:02:11;97541.91;;;28.63;26.59
62524;BME280;53689;56.878;60.672;2023-06-01T10:04:39;97539.88;;;28.48;26.76
62524;BME280;53689;56.878;60.672;2023-06-01T10:07:06;97533.66;;;28.53;26.75
62524;BME280;53689;56.878;60.672;2023-06-01T10:09:35;97531.00;;;28.63;26.90
62524;BME280;53689;56.878;60.672;2023-06-01T10:12:02;97531.03;;;28.69;26.40
62524;BME280;53689;56.878;60.672;2023-06-01T10:14:30;97518.44;;;29.00;26.10
62524;BME280;53689;56.878;60.672;2023-06-01T10:16:59;97510.09;;;29.23;25.80
62524;BME280;53689;56.878;60.672;2023-06-01T10:19:27;97517.16;;;29.18;25.77
62524;BME280;53689;56.878;60.672;2023-06-01T10:21:54;97521.59;;;29.35;25.70
62524;BME280;53689;56.878;60.672;2023-06-01T10:24:23;97509.66;;;29.46;25.48
62524;BME280;53689;56.878;60.672;2023-06-01T10:26:54;97509.94;;;29.50;25.54
62524;BME280;53689;56.878;60.672;2023-06-01T10:29:23;97501.75;;;29.50;25.74
62524;BME280;53689;56.878;60.672;2023-06-01T10:31:51;97496.84;;;29.47;25.93
62524;BME280;53689;56.878;60.672;2023-06-01T10:37:17;97496.59;;;29.54;25.43
62524;BME280;53689;56.878;60.672;2023-06-01T10:39:45;97490.59;;;29.57;25.22
62524;BME280;53689;56.878;60.672;2023-06-01T10:45:04;97489.69;;;29.35;25.49
62524;BME280;53689;56.878;60.672;2023-06-01T10:47:44;97488.56;;;29.21;25.30
62524;BME280;53689;56.878;60.672;2023-06-01T10:50:14;97484.16;;;29.10;25.14
62524;BME280;53689;56.878;60.672;2023-06-01T10:52:43;97483.31;;;29.04;25.36
62524;BME280;53689;56.878;60.672;2023-06-01T10:55:23;97485.28;;;28.65;25.68
62524;BME280;53689;56.878;60.672;2023-06-01T11:00:37;97470.94;;;28.80;25.86
62524;BME280;53689;56.878;60.672;2023-06-01T11:03:06;97469.63;;;28.88;25.72
62524;BME280;53689;56.878;60.672;2023-06-01T11:05:34;97463.09;;;28.89;25.61
62524;BME280;53689;56.878;60.672;2023-06-01T11:08:03;97464.19;;;28.88;25.66
62524;BME280;53689;56.878;60.672;2023-06-01T11:13:28;97453.00;;;28.85;26.22
62524;BME280;53689;56.878;60.672;2023-06-01T11:18:42;97445.44;;;29.02;25.98
62524;BME280;53689;56.878;60.672;2023-06-01T11:21:10;97461.25;;;29.00;25.67
62524;BME280;53689;56.878;60.672;2023-06-01T11:23:39;97444.59;;;29.02;25.79
62524;BME280;53689;56.878;60.672;2023-06-01T11:26:06;97446.25;;;29.08;25.55
62524;BME280;53689;56.878;60.672;2023-06-01T11:28:33;97444.69;;;29.23;25.35
62524;BME280;53689;56.878;60.672;2023-06-01T11:31:02;97444.41;;;29.19;25.09
62524;BME280;53689;56.878;60.672;2023-06-01T11:33:30;97450.34;;;29.05;25.50
62524;BME280;53689;56.878;60.672;2023-06-01T11:36:00;97433.78;;;29.23;25.43
62524;BME280;53689;56.878;60.672;2023-06-01T11:38:32;97430.25;;;29.27;25.38
62524;BME280;53689;56.878;60.672;2023-06-01T11:41:01;97433.53;;;29.29;25.34
62524;BME280;53689;56.878;60.672;2023-06-01T11:43:29;97434.63;;;29.44;25.11
62524;BME280;53689;56.878;60.672;2023-06-01T11:46:00;97423.50;;;29.45;25.51
62524;BME280;53689;56.878;60.672;2023-06-01T11:48:57;97431.09;;;29.43;25.25
62524;BME280;53689;56.878;60.672;2023-06-01T11:51:25;97433.03;;;29.48;25.01
62524;BME280;53689;56.878;60.672;2023-06-01T11:53:52;97419.13;;;29.49;26.78
62524;BME280;53689;56.878;60.672;2023-06-01T11:56:28;97421.00;;;29.44;24.78
62524;BME280;53689;56.878;60.672;2023-06-01T11:58:58;97409.88;;;29.61;24.80
62524;BME280;53689;56.878;60.672;2023-06-01T12:01:26;97420.22;;;29.54;24.83
62524;BME280;53689;56.878;60.672;2023-06-01T12:03:53;97421.03;;;29.54;24.83
62524;BME280;53689;56.878;60.672;2023-06-01T12:06:21;97422.41;;;29.57;25.02
62524;BME280;53689;56.878;60.672;2023-06-01T12:08:49;97422.41;;;29.46;24.97
62524;BME280;53689;56.878;60.672;2023-06-01T12:11:17;97415.59;;;29.49;24.86
62524;BME280;53689;56.878;60.672;2023-06-01T12:13:46;97419.13;;;29.44;24.75
62524;BME280;53689;56.878;60.672;2023-06-01T12:16:13;97415.31;;;29.45;24.99
62524;BME280;53689;56.878;60.672;2023-06-01T12:18:46;97428.38;;;29.43;24.73
62524;BME280;53689;56.878;60.672;2023-06-01T12:21:14;97424.03;;;29.47;24.91
62524;BME280;53689;56.878;60.672;2023-06-01T12:23:42;97429.47;;;29.42;25.04
62524;BME280;53689;56.878;60.672;2023-06-01T12:26:10;97437.88;;;29.35;24.29
62524;BME280;53689;56.878;60.672;2023-06-01T12:31:28;97437.13;;;29.45;24.54
62524;BME280;53689;56.878;60.672;2023-06-01T12:33:55;97432.78;;;29.55;24.67
62524;BME280;53689;56.878;60.672;2023-06-01T12:36:28;97432.78;;;29.55;24.37
62524;BME280;53689;56.878;60.672;2023-06-01T12:38:56;97426.78;;;29.53;24.45
62524;BME280;53689;56.878;60.672;2023-06-01T12:41:24;97426.50;;;29.49;24.71
62524;BME280;53689;56.878;60.672;2023-06-01T12:43:52;97426.22;;;29.45;24.84
62524;BME280;53689;56.878;60.672;2023-06-01T12:46:20;97428.97;;;29.51;24.73
62524;BME280;53689;56.878;60.672;2023-06-01T12:48:49;97422.97;;;29.54;24.81
62524;BME280;53689;56.878;60.672;2023-06-01T12:51:16;97434.69;;;29.59;24.94
62524;BME280;53689;56.878;60.672;2023-06-01T12:53:44;97417.50;;;29.64;24.52
62524;BME280;53689;56.878;60.672;2023-06-01T12:56:11;97421.31;;;29.58;24.58
62524;BME280;53689;56.878;60.672;2023-06-01T12:58:38;97418.88;;;29.61;24.58
62524;BME280;53689;56.878;60.672;2023-06-01T13:01:07;97409.31;;;29.59;24.82
62524;BME280;53689;56.878;60.672;2023-06-01T13:03:34;97413.13;;;29.58;24.62
62524;BME280;53689;56.878;60.672;2023-06-01T13:06:04;97419.69;;;29.62;24.74
62524;BME280;53689;56.878;60.672;2023-06-01T13:08:31;97420.25;;;29.74;24.78
62524;BME280;53689;56.878;60.672;2023-06-01T13:10:58;97421.88;;;29.65;24.92
62524;BME280;53689;56.878;60.672;2023-06-01T13:13:26;97421.31;;;29.58;24.74
62524;BME280;53689;56.878;60.672;2023-06-01T13:15:53;97408.50;;;29.58;24.83
62524;BME280;53689;56.878;60.672;2023-06-01T13:18:20;97407.16;;;29.66;24.73